sensor_id;sensor_type;location;lat;lon;timestamp;temperature;humidity
5011;DHT22;2524;54.364;10.072;2024-01-30T00:01:26;7.50;99.90
5011;DHT22;2524;54.364;10.072;2024-01-30T00:03:52;7.50;99.90
5011;DHT22;2524;54.364;10.072;2024-01-30T00:06:20;7.70;99.90
5011;DHT22;2524;54.364;10.072;2024-01-30T00:08:46;7.50;99.90
5011;DHT22;2524;54.364;10.072;2024-01-30T00:11:14;7.70;99.90
5011;DHT22;2524;54.364;10.072;2024-01-30T00:13:40;7.70;99.90
5011;DHT22;2524;54.364;10.072;2024-01-30T00:16:07;7.60;99.90
5011;DHT22;2524;54.364;10.072;2024-01-30T00:18:34;7.70;99.90
5011;DHT22;2524;54.364;10.072;2024-01-30T00:21:00;7.60;99.90
5011;DHT22;2524;54.364;10.072;2024-01-30T00:23:25;7.60;99.90
5011;DHT22;2524;54.364;10.072;2024-01-30T00:25:51;7.80;99.90
5011;DHT22;2524;54.364;10.072;2024-01-30T00:28:17;7.60;99.90
5011;DHT22;2524;54.364;10.072;2024-01-30T00:30:42;7.60;99.90
5011;DHT22;2524;54.364;10.072;2024-01-30T00:33:09;7.60;99.90
5011;DHT22;2524;54.364;10.072;2024-01-30T00:35:34;7.80;99.90
5011;DHT22;2524;54.364;10.072;2024-01-30T00:38:00;7.60;99.90
5011;DHT22;2524;54.364;10.072;2024-01-30T00:40:26;7.70;99.90
5011;DHT22;2524;54.364;10.072;2024-01-30T00:42:51;7.80;99.90
5011;DHT22;2524;54.364;10.072;2024-01-30T00:45:17;7.60;99.90
5011;DHT22;2524;54.364;10.072;2024-01-30T00:47:43;7.60;99.90
5011;DHT22;2524;54.364;10.072;2024-01-30T00:50:09;7.80;99.90
5011;DHT22;2524;54.364;10.072;2024-01-30T00:52:35;7.60;99.90
5011;DHT22;2524;54.364;10.072;2024-01-30T00:55:01;7.60;99.90
5011;DHT22;2524;54.364;10.072;2024-01-30T00:57:26;7.70;99.90
5011;DHT22;2524;54.364;10.072;2024-01-30T00:59:52;7.80;99.90
5011;DHT22;2524;54.364;10.072;2024-01-30T01:02:18;7.80;99.90
5011;DHT22;2524;54.364;10.072;2024-01-30T01:04:44;7.60;99.90
5011;DHT22;2524;54.364;10.072;2024-01-30T01:07:11;7.80;99.90
5011;DHT22;2524;54.364;10.072;2024-01-30T01:09:36;7.70;99.90
5011;DHT22;2524;54.364;10.072;2024-01-30T01:12:03;7.60;99.90
5011;DHT22;2524;54.364;10.072;2024-01-30T01:14:28;7.70;99.90
5011;DHT22;2524;54.364;10.072;2024-01-30T01:16:54;7.80;99.90
5011;DHT22;2524;54.364;10.072;2024-01-30T01:19:19;7.60;99.90
5011;DHT22;2524;54.364;10.072;2024-01-30T01:21:45;7.70;99.90
5011;DHT22;2524;54.364;10.072;2024-01-30T01:24:11;7.80;99.90
5011;DHT22;2524;54.364;10.072;2024-01-30T01:26:36;7.70;99.90
5011;DHT22;2524;54.364;10.072;2024-01-30T01:29:02;7.70;99.90
5011;DHT22;2524;54.364;10.072;2024-01-30T01:31:38;7.70;99.90
5011;DHT22;2524;54.364;10.072;2024-01-30T01:34:11;7.70;99.90
5011;DHT22;2524;54.364;10.072;2024-01-30T01:36:37;7.90;99.90
5011;DHT22;2524;54.364;10.072;2024-01-30T01:39:03;7.80;99.90
5011;DHT22;2524;54.364;10.072;2024-01-30T01:41:32;7.80;99.90
5011;DHT22;2524;54.364;10.072;2024-01-30T01:43:59;7.90;99.90
5011;DHT22;2524;54.364;10.072;2024-01-30T01:46:30;7.70;99.90
5011;DHT22;2524;54.364;10.072;2024-01-30T01:48:57;7.80;99.90
5011;DHT22;2524;54.364;10.072;2024-01-30T01:51:24;7.70;99.90
5011;DHT22;2524;54.364;10.072;2024-01-30T01:53:53;7.70;99.90
5011;DHT22;2524;54.364;10.072;2024-01-30T01:56:19;7.80;99.90
5011;DHT22;2524;54.364;10.072;2024-01-30T01:58:46;7.70;99.90
5011;DHT22;2524;54.364;10.072;2024-01-30T02:01:12;7.70;99.90
5011;DHT22;2524;54.364;10.072;2024-01-30T02:03:39;7.70;99.90
5011;DHT22;2524;54.364;10.072;2024-01-30T02:06:05;7.90;99.90
5011;DHT22;2524;54.364;10.072;2024-01-30T02:08:31;7.70;99.90
5011;DHT22;2524;54.364;10.072;2024-01-30T02:10:58;7.70;99.90
5011;DHT22;2524;54.364;10.072;2024-01-30T02:13:23;7.70;99.90
5011;DHT22;2524;54.364;10.072;2024-01-30T02:15:50;7.90;99.90
5011;DHT22;2524;54.364;10.072;2024-01-30T02:18:16;7.70;99.90
5011;DHT22;2524;54.364;10.072;2024-01-30T02:20:42;7.80;99.90
5011;DHT22;2524;54.364;10.072;2024-01-30T02:23:09;7.70;99.90
5011;DHT22;2524;54.364;10.072;2024-01-30T02:25:43;7.70;99.90
5011;DHT22;2524;54.364;10.072;2024-01-30T02:28:14;7.70;99.90
5011;DHT22;2524;54.364;10.072;2024-01-30T02:30:46;7.80;99.90
5011;DHT22;2524;54.364;10.072;2024-01-30T02:33:12;7.70;99.90
5011;DHT22;2524;54.364;10.072;2024-01-30T02:35:38;7.80;99.90
5011;DHT22;2524;54.364;10.072;2024-01-30T02:38:04;7.80;99.90
5011;DHT22;2524;54.364;10.072;2024-01-30T02:40:30;7.70;99.90
5011;DHT22;2524;54.364;10.072;2024-01-30T02:42:59;7.70;99.90
5011;DHT22;2524;54.364;10.072;2024-01-30T02:45:24;7.70;99.90
5011;DHT22;2524;54.364;10.072;2024-01-30T02:47:50;7.70;99.90
5011;DHT22;2524;54.364;10.072;2024-01-30T02:50:16;7.70;99.90
5011;DHT22;2524;54.364;10.072;2024-01-30T02:52:42;7.70;99.90
5011;DHT22;2524;54.364;10.072;2024-01-30T02:55:09;7.70;99.90
5011;DHT22;2524;54.364;10.072;2024-01-30T02:57:35;7.80;99.90
5011;DHT22;2524;54.364;10.072;2024-01-30T03:00:01;7.80;99.90
5011;DHT22;2524;54.364;10.072;2024-01-30T03:02:27;7.60;99.90
5011;DHT22;2524;54.364;10.072;2024-01-30T03:04:52;7.70;99.90
5011;DHT22;2524;54.364;10.072;2024-01-30T03:07:18;7.60;99.90
5011;DHT22;2524;54.364;10.072;2024-01-30T03:09:44;7.70;99.90
5011;DHT22;2524;54.364;10.072;2024-01-30T03:12:10;7.60;99.90
5011;DHT22;2524;54.364;10.072;2024-01-30T03:14:35;7.60;99.90
5011;DHT22;2524;54.364;10.072;2024-01-30T03:17:01;7.70;99.90
5011;DHT22;2524;54.364;10.072;2024-01-30T03:19:28;7.50;99.90
5011;DHT22;2524;54.364;10.072;2024-01-30T03:21:53;7.50;99.90
5011;DHT22;2524;54.364;10.072;2024-01-30T03:24:19;7.50;99.90
5011;DHT22;2524;54.364;10.072;2024-01-30T03:26:44;7.50;99.90
5011;DHT22;2524;54.364;10.072;2024-01-30T03:29:10;7.50;99.90
5011;DHT22;2524;54.364;10.072;2024-01-30T03:31:35;7.50;99.90
5011;DHT22;2524;54.364;10.072;2024-01-30T03:34:01;7.50;99.90
5011;DHT22;2524;54.364;10.072;2024-01-30T03:36:27;7.50;99.90
5011;DHT22;2524;54.364;10.072;2024-01-30T03:38:53;7.40;99.90
5011;DHT22;2524;54.364;10.072;2024-01-30T03:41:19;7.50;99.90
5011;DHT22;2524;54.364;10.072;2024-01-30T03:43:44;7.40;99.90
5011;DHT22;2524;54.364;10.072;2024-01-30T03:46:12;7.30;99.90
5011;DHT22;2524;54.364;10.072;2024-01-30T03:48:38;7.50;99.90
5011;DHT22;2524;54.364;10.072;2024-01-30T03:51:04;7.50;99.90
5011;DHT22;2524;54.364;10.072;2024-01-30T03:53:30;7.40;99.90
5011;DHT22;2524;54.364;10.072;2024-01-30T03:55:56;7.30;99.90
5011;DHT22;2524;54.364;10.072;2024-01-30T03:58:22;7.40;99.90
5011;DHT22;2524;54.364;10.072;2024-01-30T04:00:47;7.30;99.90
5011;DHT22;2524;54.364;10.072;2024-01-30T04:03:14;7.20;99.90
5011;DHT22;2524;54.364;10.072;2024-01-30T04:05:43;7.30;99.90
5011;DHT22;2524;54.364;10.072;2024-01-30T04:08:09;7.30;99.90
5011;DHT22;2524;54.364;10.072;2024-01-30T04:10:35;7.20;99.90
5011;DHT22;2524;54.364;10.072;2024-01-30T04:13:00;7.10;99.90
5011;DHT22;2524;54.364;10.072;2024-01-30T04:15:26;7.10;99.90
5011;DHT22;2524;54.364;10.072;2024-01-30T04:17:53;7.10;99.90
5011;DHT22;2524;54.364;10.072;2024-01-30T04:20:18;7.20;99.90
5011;DHT22;2524;54.364;10.072;2024-01-30T04:22:45;7.20;99.90
5011;DHT22;2524;54.364;10.072;2024-01-30T04:25:12;7.10;99.90
5011;DHT22;2524;54.364;10.072;2024-01-30T04:27:38;7.10;99.90
5011;DHT22;2524;54.364;10.072;2024-01-30T04:30:04;7.00;99.90
5011;DHT22;2524;54.364;10.072;2024-01-30T04:32:31;7.00;99.90
5011;DHT22;2524;54.364;10.072;2024-01-30T04:34:57;7.00;99.90
5011;DHT22;2524;54.364;10.072;2024-01-30T04:37:23;7.00;99.90
5011;DHT22;2524;54.364;10.072;2024-01-30T04:39:48;7.10;99.90
5011;DHT22;2524;54.364;10.072;2024-01-30T04:42:14;6.90;99.90
5011;DHT22;2524;54.364;10.072;2024-01-30T04:44:40;7.00;99.90
5011;DHT22;2524;54.364;10.072;2024-01-30T04:47:05;6.90;99.90
5011;DHT22;2524;54.364;10.072;2024-01-30T04:49:34;7.00;99.90
5011;DHT22;2524;54.364;10.072;2024-01-30T04:52:00;6.90;99.90
5011;DHT22;2524;54.364;10.072;2024-01-30T04:54:25;6.80;99.90
5011;DHT22;2524;54.364;10.072;2024-01-30T04:56:51;7.00;99.90
5011;DHT22;2524;54.364;10.072;2024-01-30T04:59:16;6.80;99.90
5011;DHT22;2524;54.364;10.072;2024-01-30T05:01:42;6.80;99.90
5011;DHT22;2524;54.364;10.072;2024-01-30T05:04:08;6.90;99.90
5011;DHT22;2524;54.364;10.072;2024-01-30T05:06:34;6.70;99.90
5011;DHT22;2524;54.364;10.072;2024-01-30T05:09:00;6.90;99.90
5011;DHT22;2524;54.364;10.072;2024-01-30T05:11:25;6.70;99.90
5011;DHT22;2524;54.364;10.072;2024-01-30T05:13:51;6.70;99.90
5011;DHT22;2524;54.364;10.072;2024-01-30T05:16:16;6.60;99.90
5011;DHT22;2524;54.364;10.072;2024-01-30T05:18:42;6.60;99.90
5011;DHT22;2524;54.364;10.072;2024-01-30T05:21:07;6.80;99.90
5011;DHT22;2524;54.364;10.072;2024-01-30T05:23:33;6.70;99.90
5011;DHT22;2524;54.364;10.072;2024-01-30T05:25:59;6.60;99.90
5011;DHT22;2524;54.364;10.072;2024-01-30T05:28:26;6.60;99.90
5011;DHT22;2524;54.364;10.072;2024-01-30T05:30:52;6.60;99.90
5011;DHT22;2524;54.364;10.072;2024-01-30T05:33:17;6.50;99.90
5011;DHT22;2524;54.364;10.072;2024-01-30T05:35:43;6.70;99.90
5011;DHT22;2524;54.364;10.072;2024-01-30T05:38:09;6.50;99.90
5011;DHT22;2524;54.364;10.072;2024-01-30T05:40:34;6.50;99.90
5011;DHT22;2524;54.364;10.072;2024-01-30T05:43:00;6.50;99.90
5011;DHT22;2524;54.364;10.072;2024-01-30T05:45:27;6.60;99.90
5011;DHT22;2524;54.364;10.072;2024-01-30T05:47:53;6.40;99.90
5011;DHT22;2524;54.364;10.072;2024-01-30T05:50:19;6.40;99.90
5011;DHT22;2524;54.364;10.072;2024-01-30T05:52:45;6.40;99.90
5011;DHT22;2524;54.364;10.072;2024-01-30T05:55:12;6.40;99.90
5011;DHT22;2524;54.364;10.072;2024-01-30T05:57:38;6.40;99.90
5011;DHT22;2524;54.364;10.072;2024-01-30T06:00:05;6.40;99.90
5011;DHT22;2524;54.364;10.072;2024-01-30T06:02:31;6.40;99.90
5011;DHT22;2524;54.364;10.072;2024-01-30T06:04:57;6.50;99.90
5011;DHT22;2524;54.364;10.072;2024-01-30T06:07:22;6.50;99.90
5011;DHT22;2524;54.364;10.072;2024-01-30T06:09:48;6.40;99.90
5011;DHT22;2524;54.364;10.072;2024-01-30T06:12:14;6.50;99.90
5011;DHT22;2524;54.364;10.072;2024-01-30T06:14:39;6.50;99.90
5011;DHT22;2524;54.364;10.072;2024-01-30T06:17:07;6.70;99.90
5011;DHT22;2524;54.364;10.072;2024-01-30T06:19:33;6.60;99.90
5011;DHT22;2524;54.364;10.072;2024-01-30T06:21:59;6.50;99.90
5011;DHT22;2524;54.364;10.072;2024-01-30T06:24:25;6.50;99.90
5011;DHT22;2524;54.364;10.072;2024-01-30T06:26:51;6.40;99.90
5011;DHT22;2524;54.364;10.072;2024-01-30T06:29:17;6.60;99.90
5011;DHT22;2524;54.364;10.072;2024-01-30T06:31:43;6.30;99.90
5011;DHT22;2524;54.364;10.072;2024-01-30T06:34:09;6.50;99.90
5011;DHT22;2524;54.364;10.072;2024-01-30T06:36:35;6.30;99.90
5011;DHT22;2524;54.364;10.072;2024-01-30T06:39:02;6.40;99.90
5011;DHT22;2524;54.364;10.072;2024-01-30T06:41:28;6.30;99.90
5011;DHT22;2524;54.364;10.072;2024-01-30T06:43:53;6.20;99.90
5011;DHT22;2524;54.364;10.072;2024-01-30T06:46:19;6.20;99.90
5011;DHT22;2524;54.364;10.072;2024-01-30T06:48:45;6.40;99.90
5011;DHT22;2524;54.364;10.072;2024-01-30T06:51:11;6.20;99.90
5011;DHT22;2524;54.364;10.072;2024-01-30T06:53:37;6.20;99.90
5011;DHT22;2524;54.364;10.072;2024-01-30T06:56:03;6.40;99.90
5011;DHT22;2524;54.364;10.072;2024-01-30T06:58:29;6.20;99.90
5011;DHT22;2524;54.364;10.072;2024-01-30T07:00:55;6.30;99.90
5011;DHT22;2524;54.364;10.072;2024-01-30T07:03:21;6.20;99.90
5011;DHT22;2524;54.364;10.072;2024-01-30T07:05:47;6.20;99.90
5011;DHT22;2524;54.364;10.072;2024-01-30T07:08:12;6.40;99.90
5011;DHT22;2524;54.364;10.072;2024-01-30T07:10:38;6.20;99.90
5011;DHT22;2524;54.364;10.072;2024-01-30T07:13:04;6.20;99.90
5011;DHT22;2524;54.364;10.072;2024-01-30T07:15:31;6.20;99.90
5011;DHT22;2524;54.364;10.072;2024-01-30T07:17:56;6.40;99.90
5011;DHT22;2524;54.364;10.072;2024-01-30T07:20:22;6.20;99.90
5011;DHT22;2524;54.364;10.072;2024-01-30T07:22:48;6.30;99.90
5011;DHT22;2524;54.364;10.072;2024-01-30T07:25:14;6.30;99.90
5011;DHT22;2524;54.364;10.072;2024-01-30T07:27:39;6.10;99.90
5011;DHT22;2524;54.364;10.072;2024-01-30T07:30:05;6.10;99.90
5011;DHT22;2524;54.364;10.072;2024-01-30T07:32:31;6.20;99.90
5011;DHT22;2524;54.364;10.072;2024-01-30T07:34:57;6.30;99.90
5011;DHT22;2524;54.364;10.072;2024-01-30T07:37:23;6.10;99.90
5011;DHT22;2524;54.364;10.072;2024-01-30T07:39:48;6.10;99.90
5011;DHT22;2524;54.364;10.072;2024-01-30T07:42:14;6.10;99.90
5011;DHT22;2524;54.364;10.072;2024-01-30T07:44:39;6.10;99.90
5011;DHT22;2524;54.364;10.072;2024-01-30T07:47:05;6.30;99.90
5011;DHT22;2524;54.364;10.072;2024-01-30T07:49:31;6.10;99.90
5011;DHT22;2524;54.364;10.072;2024-01-30T07:51:57;6.10;99.90
5011;DHT22;2524;54.364;10.072;2024-01-30T07:54:22;6.10;99.90
5011;DHT22;2524;54.364;10.072;2024-01-30T07:56:48;6.20;99.90
5011;DHT22;2524;54.364;10.072;2024-01-30T07:59:14;6.30;99.90
5011;DHT22;2524;54.364;10.072;2024-01-30T08:01:40;6.20;99.90
5011;DHT22;2524;54.364;10.072;2024-01-30T08:04:06;6.10;99.90
5011;DHT22;2524;54.364;10.072;2024-01-30T08:06:31;6.20;99.90
5011;DHT22;2524;54.364;10.072;2024-01-30T08:08:57;6.20;99.90
5011;DHT22;2524;54.364;10.072;2024-01-30T08:11:24;6.20;99.90
5011;DHT22;2524;54.364;10.072;2024-01-30T08:13:55;6.40;99.90
5011;DHT22;2524;54.364;10.072;2024-01-30T08:16:20;6.20;99.90
5011;DHT22;2524;54.364;10.072;2024-01-30T08:18:46;6.20;99.90
5011;DHT22;2524;54.364;10.072;2024-01-30T08:21:11;6.50;99.90
5011;DHT22;2524;54.364;10.072;2024-01-30T08:23:40;6.30;99.90
5011;DHT22;2524;54.364;10.072;2024-01-30T08:26:06;6.30;99.90
5011;DHT22;2524;54.364;10.072;2024-01-30T08:28:32;6.30;99.90
5011;DHT22;2524;54.364;10.072;2024-01-30T08:30:57;6.50;99.90
5011;DHT22;2524;54.364;10.072;2024-01-30T08:33:23;6.40;99.90
5011;DHT22;2524;54.364;10.072;2024-01-30T08:35:49;6.60;99.90
5011;DHT22;2524;54.364;10.072;2024-01-30T08:38:14;6.40;99.90
5011;DHT22;2524;54.364;10.072;2024-01-30T08:40:40;6.50;99.90
5011;DHT22;2524;54.364;10.072;2024-01-30T08:43:05;6.70;99.90
5011;DHT22;2524;54.364;10.072;2024-01-30T08:45:31;6.70;99.90
5011;DHT22;2524;54.364;10.072;2024-01-30T08:47:57;6.60;99.90
5011;DHT22;2524;54.364;10.072;2024-01-30T08:50:22;6.60;99.90
5011;DHT22;2524;54.364;10.072;2024-01-30T08:52:48;6.80;99.90
5011;DHT22;2524;54.364;10.072;2024-01-30T08:55:14;6.70;99.90
5011;DHT22;2524;54.364;10.072;2024-01-30T08:57:39;6.70;99.90
5011;DHT22;2524;54.364;10.072;2024-01-30T09:00:05;6.70;99.90
5011;DHT22;2524;54.364;10.072;2024-01-30T09:02:34;6.70;99.90
5011;DHT22;2524;54.364;10.072;2024-01-30T09:04:59;6.80;99.90
5011;DHT22;2524;54.364;10.072;2024-01-30T09:07:25;6.90;99.90
5011;DHT22;2524;54.364;10.072;2024-01-30T09:09:50;7.00;99.90
5011;DHT22;2524;54.364;10.072;2024-01-30T09:12:16;6.80;99.90
5011;DHT22;2524;54.364;10.072;2024-01-30T09:14:42;6.90;99.90
5011;DHT22;2524;54.364;10.072;2024-01-30T09:17:07;6.90;99.90
5011;DHT22;2524;54.364;10.072;2024-01-30T09:19:33;6.90;99.90
5011;DHT22;2524;54.364;10.072;2024-01-30T09:21:59;6.90;99.90
5011;DHT22;2524;54.364;10.072;2024-01-30T09:24:26;7.10;99.90
5011;DHT22;2524;54.364;10.072;2024-01-30T09:26:52;7.00;99.90
5011;DHT22;2524;54.364;10.072;2024-01-30T09:29:17;7.10;99.90
5011;DHT22;2524;54.364;10.072;2024-01-30T09:31:46;7.00;99.90
5011;DHT22;2524;54.364;10.072;2024-01-30T09:34:12;7.00;99.90
5011;DHT22;2524;54.364;10.072;2024-01-30T09:36:39;7.00;99.90
5011;DHT22;2524;54.364;10.072;2024-01-30T09:39:05;7.20;99.90
5011;DHT22;2524;54.364;10.072;2024-01-30T09:41:33;7.10;99.90
5011;DHT22;2524;54.364;10.072;2024-01-30T09:44:02;7.30;99.90
5011;DHT22;2524;54.364;10.072;2024-01-30T09:46:29;7.10;99.90
5011;DHT22;2524;54.364;10.072;2024-01-30T09:48:57;7.30;99.90
5011;DHT22;2524;54.364;10.072;2024-01-30T09:51:24;7.20;99.90
5011;DHT22;2524;54.364;10.072;2024-01-30T09:53:50;7.20;99.90
5011;DHT22;2524;54.364;10.072;2024-01-30T09:56:16;7.30;99.90
5011;DHT22;2524;54.364;10.072;2024-01-30T09:58:42;7.40;99.90
5011;DHT22;2524;54.364;10.072;2024-01-30T10:01:08;7.50;99.90
5011;DHT22;2524;54.364;10.072;2024-01-30T10:03:33;7.50;99.90
5011;DHT22;2524;54.364;10.072;2024-01-30T10:06:00;7.40;99.90
5011;DHT22;2524;54.364;10.072;2024-01-30T10:08:26;7.60;99.90
5011;DHT22;2524;54.364;10.072;2024-01-30T10:10:52;7.50;99.90
5011;DHT22;2524;54.364;10.072;2024-01-30T10:13:18;7.60;99.90
5011;DHT22;2524;54.364;10.072;2024-01-30T10:15:44;7.50;99.90
5011;DHT22;2524;54.364;10.072;2024-01-30T10:18:10;7.50;99.90
5011;DHT22;2524;54.364;10.072;2024-01-30T10:20:37;7.50;99.90
5011;DHT22;2524;54.364;10.072;2024-01-30T10:23:03;7.70;99.90
5011;DHT22;2524;54.364;10.072;2024-01-30T10:25:30;7.50;99.90
5011;DHT22;2524;54.364;10.072;2024-01-30T10:27:56;7.70;99.90
5011;DHT22;2524;54.364;10.072;2024-01-30T10:30:22;7.80;99.90
5011;DHT22;2524;54.364;10.072;2024-01-30T10:32:48;7.80;99.90
5011;DHT22;2524;54.364;10.072;2024-01-30T10:35:15;7.70;99.90
5011;DHT22;2524;54.364;10.072;2024-01-30T10:37:43;7.70;99.90
5011;DHT22;2524;54.364;10.072;2024-01-30T10:40:13;7.70;99.90
5011;DHT22;2524;54.364;10.072;2024-01-30T10:42:42;7.80;99.90
5011;DHT22;2524;54.364;10.072;2024-01-30T10:45:10;7.90;99.90
5011;DHT22;2524;54.364;10.072;2024-01-30T10:47:39;8.00;99.90
5011;DHT22;2524;54.364;10.072;2024-01-30T10:50:05;7.90;99.90
5011;DHT22;2524;54.364;10.072;2024-01-30T10:54:59;7.90;99.90
5011;DHT22;2524;54.364;10.072;2024-01-30T10:57:26;8.10;99.90
5011;DHT22;2524;54.364;10.072;2024-01-30T10:59:57;8.20;99.90
5011;DHT22;2524;54.364;10.072;2024-01-30T11:02:24;8.00;99.90
5011;DHT22;2524;54.364;10.072;2024-01-30T11:04:56;8.10;99.90
5011;DHT22;2524;54.364;10.072;2024-01-30T11:07:27;8.10;99.90
5011;DHT22;2524;54.364;10.072;2024-01-30T11:09:54;8.20;99.90
5011;DHT22;2524;54.364;10.072;2024-01-30T11:12:28;8.10;99.90
5011;DHT22;2524;54.364;10.072;2024-01-30T11:15:09;8.10;99.90
5011;DHT22;2524;54.364;10.072;2024-01-30T11:20:25;8.30;99.90
5011;DHT22;2524;54.364;10.072;2024-01-30T11:22:53;8.20;99.90
5011;DHT22;2524;54.364;10.072;2024-01-30T11:25:23;8.20;99.90
5011;DHT22;2524;54.364;10.072;2024-01-30T11:27:54;8.20;99.90
5011;DHT22;2524;54.364;10.072;2024-01-30T11:30:29;8.30;99.90
5011;DHT22;2524;54.364;10.072;2024-01-30T11:33:10;8.20;99.90
5011;DHT22;2524;54.364;10.072;2024-01-30T11:35:40;8.20;99.90
5011;DHT22;2524;54.364;10.072;2024-01-30T11:38:07;8.30;99.90
5011;DHT22;2524;54.364;10.072;2024-01-30T11:40:36;8.20;99.90
5011;DHT22;2524;54.364;10.072;2024-01-30T11:43:03;8.40;99.90
5011;DHT22;2524;54.364;10.072;2024-01-30T11:45:30;8.20;99.90
5011;DHT22;2524;54.364;10.072;2024-01-30T11:47:56;8.20;99.90
5011;DHT22;2524;54.364;10.072;2024-01-30T11:50:22;8.20;99.90
5011;DHT22;2524;54.364;10.072;2024-01-30T11:52:48;8.20;99.90
5011;DHT22;2524;54.364;10.072;2024-01-30T11:55:14;8.20;99.90
5011;DHT22;2524;54.364;10.072;2024-01-30T11:57:40;8.20;99.90
5011;DHT22;2524;54.364;10.072;2024-01-30T12:00:13;5.60;99.90
5011;DHT22;2524;54.364;10.072;2024-01-30T12:02:40;8.40;99.90
5011;DHT22;2524;54.364;10.072;2024-01-30T12:05:06;8.40;99.90
5011;DHT22;2524;54.364;10.072;2024-01-30T12:07:32;8.30;99.90
5011;DHT22;2524;54.364;10.072;2024-01-30T12:09:58;8.50;99.90
5011;DHT22;2524;54.364;10.072;2024-01-30T12:12:27;8.40;99.90
5011;DHT22;2524;54.364;10.072;2024-01-30T12:14:54;8.30;99.90
5011;DHT22;2524;54.364;10.072;2024-01-30T12:17:31;8.60;99.90
5011;DHT22;2524;54.364;10.072;2024-01-30T12:20:08;8.50;99.90
5011;DHT22;2524;54.364;10.072;2024-01-30T12:22:42;8.50;99.90
5011;DHT22;2524;54.364;10.072;2024-01-30T12:25:09;8.60;99.90
5011;DHT22;2524;54.364;10.072;2024-01-30T12:27:35;8.40;99.90
5011;DHT22;2524;54.364;10.072;2024-01-30T12:30:02;8.80;99.90
5011;DHT22;2524;54.364;10.072;2024-01-30T12:32:30;8.40;99.90
5011;DHT22;2524;54.364;10.072;2024-01-30T12:34:56;8.90;99.90
5011;DHT22;2524;54.364;10.072;2024-01-30T12:37:22;8.50;99.90
5011;DHT22;2524;54.364;10.072;2024-01-30T12:39:51;8.50;99.90
5011;DHT22;2524;54.364;10.072;2024-01-30T12:42:17;8.50;99.90
5011;DHT22;2524;54.364;10.072;2024-01-30T12:44:43;8.40;99.90
5011;DHT22;2524;54.364;10.072;2024-01-30T12:47:09;8.50;99.90
5011;DHT22;2524;54.364;10.072;2024-01-30T12:49:35;8.70;99.90
5011;DHT22;2524;54.364;10.072;2024-01-30T12:52:01;8.60;99.90
5011;DHT22;2524;54.364;10.072;2024-01-30T12:54:28;8.60;99.90
5011;DHT22;2524;54.364;10.072;2024-01-30T12:56:53;8.70;99.90
5011;DHT22;2524;54.364;10.072;2024-01-30T12:59:19;8.60;99.90
5011;DHT22;2524;54.364;10.072;2024-01-30T13:01:45;8.70;99.90
5011;DHT22;2524;54.364;10.072;2024-01-30T13:04:11;8.70;99.90
5011;DHT22;2524;54.364;10.072;2024-01-30T13:06:37;8.70;99.90
5011;DHT22;2524;54.364;10.072;2024-01-30T13:09:03;8.60;99.90
5011;DHT22;2524;54.364;10.072;2024-01-30T13:11:33;8.80;99.90
5011;DHT22;2524;54.364;10.072;2024-01-30T13:13:59;8.90;99.90
5011;DHT22;2524;54.364;10.072;2024-01-30T13:16:25;8.70;99.90
5011;DHT22;2524;54.364;10.072;2024-01-30T13:18:50;8.80;99.90
5011;DHT22;2524;54.364;10.072;2024-01-30T13:21:17;8.90;99.90
5011;DHT22;2524;54.364;10.072;2024-01-30T13:23:42;9.00;99.90
5011;DHT22;2524;54.364;10.072;2024-01-30T13:26:08;8.90;99.90
5011;DHT22;2524;54.364;10.072;2024-01-30T13:28:34;8.80;99.90
5011;DHT22;2524;54.364;10.072;2024-01-30T13:31:00;8.90;99.90
5011;DHT22;2524;54.364;10.072;2024-01-30T13:33:26;8.80;99.90
5011;DHT22;2524;54.364;10.072;2024-01-30T13:35:52;8.60;99.90
5011;DHT22;2524;54.364;10.072;2024-01-30T13:38:17;8.40;99.90
5011;DHT22;2524;54.364;10.072;2024-01-30T13:40:43;9.00;99.90
5011;DHT22;2524;54.364;10.072;2024-01-30T13:43:08;8.70;99.90
5011;DHT22;2524;54.364;10.072;2024-01-30T13:45:34;8.90;99.90
5011;DHT22;2524;54.364;10.072;2024-01-30T13:48:00;9.10;99.90
5011;DHT22;2524;54.364;10.072;2024-01-30T13:50:26;8.80;99.90
5011;DHT22;2524;54.364;10.072;2024-01-30T13:52:52;9.00;99.90
5011;DHT22;2524;54.364;10.072;2024-01-30T13:55:17;9.00;99.90
5011;DHT22;2524;54.364;10.072;2024-01-30T13:57:43;8.90;99.90
5011;DHT22;2524;54.364;10.072;2024-01-30T14:00:09;9.10;99.90
5011;DHT22;2524;54.364;10.072;2024-01-30T14:02:35;8.90;99.90
5011;DHT22;2524;54.364;10.072;2024-01-30T14:05:00;9.20;99.90
5011;DHT22;2524;54.364;10.072;2024-01-30T14:07:26;8.70;99.90
5011;DHT22;2524;54.364;10.072;2024-01-30T14:09:52;8.70;99.90
5011;DHT22;2524;54.364;10.072;2024-01-30T14:12:17;8.90;99.90
5011;DHT22;2524;54.364;10.072;2024-01-30T14:14:43;8.60;99.90
5011;DHT22;2524;54.364;10.072;2024-01-30T14:17:08;8.90;99.90
5011;DHT22;2524;54.364;10.072;2024-01-30T14:19:35;8.70;99.90
5011;DHT22;2524;54.364;10.072;2024-01-30T14:22:01;9.20;99.90
5011;DHT22;2524;54.364;10.072;2024-01-30T14:24:27;9.00;99.90
5011;DHT22;2524;54.364;10.072;2024-01-30T14:26:52;8.90;99.90
5011;DHT22;2524;54.364;10.072;2024-01-30T14:29:18;9.00;99.90
5011;DHT22;2524;54.364;10.072;2024-01-30T14:31:44;9.10;99.90
5011;DHT22;2524;54.364;10.072;2024-01-30T14:34:10;9.00;99.90
5011;DHT22;2524;54.364;10.072;2024-01-30T14:36:37;9.20;99.90
5011;DHT22;2524;54.364;10.072;2024-01-30T14:39:03;9.10;99.90
5011;DHT22;2524;54.364;10.072;2024-01-30T14:41:29;9.20;99.90
5011;DHT22;2524;54.364;10.072;2024-01-30T14:43:55;9.20;99.90
5011;DHT22;2524;54.364;10.072;2024-01-30T14:46:21;9.10;99.90
5011;DHT22;2524;54.364;10.072;2024-01-30T14:48:47;9.40;99.90
5011;DHT22;2524;54.364;10.072;2024-01-30T14:51:13;9.20;99.90
5011;DHT22;2524;54.364;10.072;2024-01-30T14:53:39;8.90;99.90
5011;DHT22;2524;54.364;10.072;2024-01-30T14:56:05;8.90;99.90
5011;DHT22;2524;54.364;10.072;2024-01-30T14:58:31;9.10;99.90
5011;DHT22;2524;54.364;10.072;2024-01-30T15:00:57;9.20;99.90
5011;DHT22;2524;54.364;10.072;2024-01-30T15:03:22;9.50;99.90
5011;DHT22;2524;54.364;10.072;2024-01-30T15:05:48;9.30;99.90
5011;DHT22;2524;54.364;10.072;2024-01-30T15:08:14;9.30;99.90
5011;DHT22;2524;54.364;10.072;2024-01-30T15:10:39;9.40;99.90
5011;DHT22;2524;54.364;10.072;2024-01-30T15:13:05;9.30;99.90
5011;DHT22;2524;54.364;10.072;2024-01-30T15:15:30;9.20;99.90
5011;DHT22;2524;54.364;10.072;2024-01-30T15:17:56;9.40;99.90
5011;DHT22;2524;54.364;10.072;2024-01-30T15:20:23;9.20;99.90
5011;DHT22;2524;54.364;10.072;2024-01-30T15:22:49;9.20;99.90
5011;DHT22;2524;54.364;10.072;2024-01-30T15:25:15;9.50;99.90
5011;DHT22;2524;54.364;10.072;2024-01-30T15:27:41;9.40;99.90
5011;DHT22;2524;54.364;10.072;2024-01-30T15:30:07;9.30;99.90
5011;DHT22;2524;54.364;10.072;2024-01-30T15:32:33;9.20;99.90
5011;DHT22;2524;54.364;10.072;2024-01-30T15:35:01;9.30;99.90
5011;DHT22;2524;54.364;10.072;2024-01-30T15:37:29;9.20;99.90
5011;DHT22;2524;54.364;10.072;2024-01-30T15:39:55;9.40;99.90
5011;DHT22;2524;54.364;10.072;2024-01-30T15:42:20;9.20;99.90
5011;DHT22;2524;54.364;10.072;2024-01-30T15:44:46;9.30;99.90
5011;DHT22;2524;54.364;10.072;2024-01-30T15:47:11;9.40;99.90
5011;DHT22;2524;54.364;10.072;2024-01-30T15:49:37;9.20;99.90
5011;DHT22;2524;54.364;10.072;2024-01-30T15:52:03;9.10;99.90
5011;DHT22;2524;54.364;10.072;2024-01-30T15:54:29;9.30;99.90
5011;DHT22;2524;54.364;10.072;2024-01-30T15:56:54;8.80;99.90
5011;DHT22;2524;54.364;10.072;2024-01-30T15:59:20;9.20;99.90
5011;DHT22;2524;54.364;10.072;2024-01-30T16:01:46;9.10;99.90